Time;durP1;ratioP1;P1;durP2;ratioP2;P2;SDS_P1;SDS_P2;PMS_P1;PMS_P2;Temp;Humidity;BMP_temperature;BMP_pressure;BME280_temperature;BME280_humidity;BME280_pressure;Samples;Min_cycle;Max_cycle;Signal;HPM_P1;HPM_P2
2021/05/28 00:00:41;;;;;;;8.93;7.13;;;;;;;16.45;84.78;99395.38;129723;1105;22578;-58
2021/05/28 00:03:10;;;;;;;8.70;7.80;;;;;;;16.46;84.81;99393.44;129629;1104;23315;-58
2021/05/28 00:05:38;;;;;;;7.78;7.00;;;;;;;16.45;85.03;99395.38;129701;1104;23858;-58
2021/05/28 00:08:07;;;;;;;9.08;7.43;;;;;;;16.45;85.03;99395.38;129655;1104;22654;-59
2021/05/28 00:10:35;;;;;;;7.80;6.88;;;;;;;16.43;84.88;99389.38;129701;1104;22552;-59
2021/05/28 00:13:05;;;;;;;10.30;6.90;;;;;;;16.42;85.00;99386.92;129659;1104;22690;-59
2021/05/28 00:15:34;;;;;;;9.23;8.18;;;;;;;16.40;85.05;99392.73;129710;1104;22646;-59
2021/05/28 00:18:04;;;;;;;8.60;7.65;;;;;;;16.40;84.94;99392.73;129670;1105;22570;-59
2021/05/28 00:20:32;;;;;;;8.50;6.75;;;;;;;16.39;85.21;99388.34;129723;1104;22520;-59
2021/05/28 00:23:00;;;;;;;9.75;7.88;;;;;;;16.37;84.95;99396.06;129637;1104;22553;-59
2021/05/28 00:25:29;;;;;;;11.13;8.15;;;;;;;16.36;85.23;99397.18;129681;1104;22574;-59
2021/05/28 00:27:58;;;;;;;9.45;7.98;;;;;;;16.34;85.27;99384.84;129701;1104;23305;-59
2021/05/28 00:30:28;;;;;;;7.98;7.18;;;;;;;16.32;85.03;99390.64;129676;1105;23535;-58
2021/05/28 00:32:57;;;;;;;12.50;8.50;;;;;;;16.31;85.17;99389.00;129678;1104;22716;-59
2021/05/28 00:35:25;;;;;;;10.03;8.55;;;;;;;16.31;85.38;99385.44;129707;1105;22586;-58
2021/05/28 00:37:53;;;;;;;10.53;9.00;;;;;;;16.32;85.28;99381.57;129681;1104;23236;-59
2021/05/28 00:40:22;;;;;;;11.85;8.58;;;;;;;16.31;85.32;99383.50;129641;1104;22719;-58
2021/05/28 00:42:50;;;;;;;8.50;7.53;;;;;;;16.28;85.40;99370.38;129697;1104;23357;-59
2021/05/28 00:45:18;;;;;;;11.80;9.45;;;;;;;16.28;85.40;99366.81;129700;1104;22548;-58
2021/05/28 00:47:47;;;;;;;11.48;9.10;;;;;;;16.27;85.37;99365.99;129748;1104;22558;-59
2021/05/28 00:50:15;;;;;;;13.38;8.35;;;;;;;16.27;85.40;99363.24;129656;1104;24534;-60
2021/05/28 00:52:44;;;;;;;9.95;8.50;;;;;;;16.26;85.40;99361.61;129703;1104;22538;-60
2021/05/28 00:55:13;;;;;;;10.00;9.00;;;;;;;16.26;85.52;99359.67;129629;1104;22573;-59
2021/05/28 00:57:41;;;;;;;10.08;8.18;;;;;;;16.25;85.40;99365.47;129662;1105;22619;-59
2021/05/28 01:00:10;;;;;;;9.53;8.53;;;;;;;16.24;85.18;99356.41;129651;1105;22636;-59
2021/05/28 01:02:39;;;;;;;8.63;7.75;;;;;;;16.24;85.37;99361.09;129705;1104;23000;-59
2021/05/28 01:05:09;;;;;;;10.30;9.23;;;;;;;16.22;85.48;99360.56;129635;1104;22594;-64
2021/05/28 01:07:37;;;;;;;9.85;8.85;;;;;;;16.23;85.20;99362.20;129722;1104;22656;-64
2021/05/28 01:10:06;;;;;;;11.70;9.73;;;;;;;16.22;85.32;99366.06;129649;1104;22656;-64
2021/05/28 01:12:35;;;;;;;11.23;9.95;;;;;;;16.21;85.37;99370.74;129708;1104;23062;-64
2021/05/28 01:15:06;;;;;;;12.38;10.05;;;;;;;16.21;85.41;99367.99;129704;1104;22634;-64
2021/05/28 01:17:35;;;;;;;11.68;10.58;;;;;;;16.21;85.57;99370.74;129740;1104;22617;-64
2021/05/28 01:20:06;;;;;;;11.68;10.48;;;;;;;16.23;85.61;99363.02;129696;1104;22613;-64
2021/05/28 01:22:38;;;;;;;11.65;10.55;;;;;;;16.23;85.56;99365.77;129659;1104;23644;-64
2021/05/28 01:25:08;;;;;;;11.90;10.58;;;;;;;16.23;85.49;99365.77;129697;1104;23077;-64
2021/05/28 01:27:36;;;;;;;11.53;10.33;;;;;;;16.24;85.62;99363.84;129652;1104;22624;-64
2021/05/28 01:30:05;;;;;;;11.88;10.68;;;;;;;16.25;85.52;99348.97;129692;1104;23403;-64
2021/05/28 01:32:33;;;;;;;11.58;10.38;;;;;;;16.25;85.55;99359.97;129682;1104;22610;-64
2021/05/28 01:35:02;;;;;;;10.68;9.65;;;;;;;16.25;85.37;99358.05;129684;1104;22653;-64
2021/05/28 01:37:30;;;;;;;12.05;10.90;;;;;;;16.24;85.44;99359.16;129632;1104;22626;-64
2021/05/28 01:39:59;;;;;;;11.38;10.13;;;;;;;16.25;85.20;99363.54;129692;1104;23063;-64
2021/05/28 01:42:27;;;;;;;10.83;9.78;;;;;;;16.24;85.38;99358.34;129604;1105;23292;-64
2021/05/28 01:44:58;;;;;;;12.85;10.10;;;;;;;16.23;85.38;99357.52;129714;1105;22701;-64
2021/05/28 01:47:26;;;;;;;12.33;11.05;;;;;;;16.23;85.04;99353.95;129645;1104;22550;-64
2021/05/28 01:49:55;;;;;;;11.85;10.40;;;;;;;16.22;85.18;99353.13;129688;1103;22553;-64
2021/05/28 01:52:25;;;;;;;15.38;11.25;;;;;;;16.20;85.13;99357.30;129697;1104;23263;-64
2021/05/28 01:54:55;;;;;;;10.45;9.35;;;;;;;16.20;85.32;99365.54;129713;1104;22674;-64
2021/05/28 01:57:24;;;;;;;11.85;10.23;;;;;;;16.19;85.07;99359.22;129663;1104;22494;-64
2021/05/28 01:59:52;;;;;;;10.80;9.70;;;;;;;16.19;85.32;99363.91;129702;1105;22553;-64
2021/05/28 02:02:21;;;;;;;11.95;10.58;;;;;;;16.18;85.18;99359.52;129671;1104;23501;-64
2021/05/28 02:04:49;;;;;;;11.58;9.48;;;;;;;16.18;85.22;99363.09;129750;1104;22547;-64
2021/05/28 02:07:18;;;;;;;11.35;9.83;;;;;;;16.18;85.30;99368.58;129673;1104;22662;-64
2021/05/28 02:09:47;;;;;;;11.08;9.98;;;;;;;16.17;85.09;99361.45;129727;1104;23101;-64
2021/05/28 02:12:15;;;;;;;9.85;8.70;;;;;;;16.17;85.19;99372.45;129670;1104;23670;-65
2021/05/28 02:14:44;;;;;;;13.28;8.73;;;;;;;16.17;85.28;99368.88;129260;1105;22538;-65
2021/05/28 02:17:13;;;;;;;10.80;9.70;;;;;;;16.16;85.08;99368.06;129691;1104;23359;-64
2021/05/28 02:19:41;;;;;;;11.13;10.08;;;;;;;16.15;85.13;99362.89;129650;1104;22703;-64
2021/05/28 02:22:11;;;;;;;10.78;9.70;;;;;;;16.16;85.21;99365.31;129726;1104;22653;-65
2021/05/28 02:24:39;;;;;;;15.23;10.88;;;;;;;16.16;85.30;99364.49;129703;1105;23161;-64
2021/05/28 02:27:08;;;;;;;13.03;10.87;;;;;;;16.15;85.43;99363.70;129684;1104;22579;-64
2021/05/28 02:29:37;;;;;;;11.35;10.15;;;;;;;16.16;85.54;99364.49;129642;1104;22545;-64
2021/05/28 02:32:06;;;;;;;10.58;9.40;;;;;;;16.14;85.56;99362.07;129721;1104;22562;-64
2021/05/28 02:34:34;;;;;;;11.18;10.05;;;;;;;16.13;85.40;99354.94;129681;1104;22563;-64
2021/05/28 02:37:03;;;;;;;11.25;9.90;;;;;;;16.13;85.46;99351.38;129701;1104;22642;-64
2021/05/28 02:39:31;;;;;;;13.43;9.78;;;;;;;16.13;85.65;99351.38;129650;1104;22552;-64
2021/05/28 02:42:00;;;;;;;10.60;9.48;;;;;;;16.14;85.65;99342.02;129680;1105;22555;-64
2021/05/28 02:44:28;;;;;;;10.30;9.30;;;;;;;16.14;85.84;99336.52;129600;1104;22664;-64
2021/05/28 02:46:56;;;;;;;13.80;10.35;;;;;;;16.16;86.16;99343.32;129757;1105;22553;-64
2021/05/28 02:49:26;;;;;;;10.65;9.53;;;;;;;16.18;86.01;99343.84;129663;1104;22686;-64
2021/05/28 02:51:54;;;;;;;12.10;9.95;;;;;;;16.20;86.11;99335.30;129705;1105;22651;-64
2021/05/28 02:54:22;;;;;;;9.93;8.93;;;;;;;16.22;85.91;99341.31;129678;1104;23249;-64
2021/05/28 02:56:51;;;;;;;10.53;9.10;;;;;;;16.24;86.28;99339.91;129704;1104;22571;-64
2021/05/28 02:59:21;;;;;;;11.00;9.90;;;;;;;16.25;86.05;99336.05;129618;1104;22669;-64
2021/05/28 03:01:49;;;;;;;11.65;10.45;;;;;;;16.29;86.10;99338.20;129721;1104;22662;-64
2021/05/28 03:04:18;;;;;;;12.13;9.75;;;;;;;16.31;86.31;99335.95;129661;1104;22575;-64
2021/05/28 03:06:47;;;;;;;16.43;9.43;;;;;;;16.33;86.33;99337.28;129694;1104;22603;-64
2021/05/28 03:09:16;;;;;;;10.38;9.38;;;;;;;16.37;86.24;99341.08;129726;1104;22599;-63
2021/05/28 03:11:45;;;;;;;15.60;10.33;;;;;;;16.40;86.29;99336.91;129666;1104;22637;-64
2021/05/28 03:14:17;;;;;;;11.93;10.45;;;;;;;16.41;86.17;99335.80;129688;1104;23205;-64
2021/05/28 03:16:46;;;;;;;10.43;9.40;;;;;;;16.41;86.21;99335.80;129644;1104;22554;-64
2021/05/28 03:19:21;;;;;;;10.80;9.68;;;;;;;16.43;85.97;99341.81;129702;1104;22767;-63
2021/05/28 03:24:37;;;;;;;11.60;9.50;;;;;;;16.42;85.84;99330.00;129705;1104;22544;-64
2021/05/28 03:27:06;;;;;;;11.18;8.78;;;;;;;16.42;86.09;99332.75;129690;1104;22543;-64
2021/05/28 03:29:35;;;;;;;11.73;9.63;;;;;;;16.43;85.96;99336.31;129715;1104;22571;-64
2021/05/28 03:32:04;;;;;;;12.68;9.85;;;;;;;16.43;85.99;99337.13;129637;1104;22567;-64
2021/05/28 03:34:32;;;;;;;14.58;10.38;;;;;;;16.45;85.93;99336.80;129684;1104;22710;-63
2021/05/28 03:37:01;;;;;;;10.95;9.85;;;;;;;16.45;85.90;99336.80;129664;1104;22602;-64
2021/05/28 03:39:30;;;;;;;12.08;10.73;;;;;;;16.43;85.95;99331.63;129667;1104;22543;-64
2021/05/28 03:41:58;;;;;;;14.85;10.53;;;;;;;16.43;85.92;99348.13;129663;1105;22581;-64
2021/05/28 03:44:27;;;;;;;11.55;10.33;;;;;;;16.41;85.95;99344.05;129741;1104;22634;-64
2021/05/28 03:46:55;;;;;;;11.43;10.23;;;;;;;16.40;86.04;99339.66;129683;1104;22675;-64
2021/05/28 03:49:23;;;;;;;13.50;11.35;;;;;;;16.38;85.99;99341.89;129686;1104;22560;-64
2021/05/28 03:51:52;;;;;;;12.30;10.45;;;;;;;16.35;86.14;99346.05;129676;1105;22557;-64
2021/05/28 03:54:21;;;;;;;11.40;10.08;;;;;;;16.34;86.33;99347.16;129697;1104;22687;-64
2021/05/28 03:56:50;;;;;;;11.03;9.90;;;;;;;16.32;86.27;99343.08;129645;1104;22966;-64
2021/05/28 03:59:18;;;;;;;12.15;10.30;;;;;;;16.32;86.32;99348.58;129710;1105;22553;-64
2021/05/28 04:01:47;;;;;;;10.33;9.28;;;;;;;16.31;86.41;99349.69;129666;1104;22637;-64
2021/05/28 04:04:18;;;;;;;10.80;9.70;;;;;;;16.29;86.40;99351.95;129692;1104;22600;-63
2021/05/28 04:06:46;;;;;;;10.68;9.63;;;;;;;16.28;86.46;99355.81;129655;1104;22509;-64
2021/05/28 04:09:15;;;;;;;10.80;9.58;;;;;;;16.27;86.67;99360.49;129683;1104;23020;-64
2021/05/28 04:12:00;;;;;;;12.20;10.27;;;;;;;16.28;86.63;99351.13;129627;1104;23607;-64
2021/05/28 04:14:28;;;;;;;11.75;10.55;;;;;;;16.29;86.76;99352.77;129719;1104;22630;-64
2021/05/28 04:16:57;;;;;;;16.05;10.18;;;;;;;16.31;86.92;99347.76;129735;1104;22658;-64
2021/05/28 04:19:25;;;;;;;15.68;11.83;;;;;;;16.33;86.77;99348.28;129676;1104;22650;-64
2021/05/28 04:21:54;;;;;;;11.55;10.15;;;;;;;16.33;86.76;99355.71;129701;1104;23398;-64
2021/05/28 04:24:22;;;;;;;12.23;9.15;;;;;;;16.33;86.49;99353.78;129631;1105;22535;-64
2021/05/28 04:26:51;;;;;;;10.95;9.85;;;;;;;16.35;86.66;99358.98;129652;1104;23467;-64
2021/05/28 04:29:21;;;;;;;12.03;9.73;;;;;;;16.35;86.65;99359.80;129573;1104;22565;-64
2021/05/28 04:31:49;;;;;;;11.38;10.05;;;;;;;16.39;86.66;99360.02;129678;1104;23383;-64
2021/05/28 04:34:18;;;;;;;10.93;9.00;;;;;;;16.41;86.63;99353.11;129594;1104;22730;-63
2021/05/28 04:36:47;;;;;;;9.60;8.58;;;;;;;16.44;86.76;99354.45;129670;1104;22546;-64
2021/05/28 04:39:17;;;;;;;13.30;9.03;;;;;;;16.46;86.33;99350.26;129255;1098;22705;-64
2021/05/28 04:41:46;;;;;;;11.08;9.48;;;;;;;16.48;86.53;99356.28;129915;1101;22653;-64
2021/05/28 04:44:16;;;;;;;11.75;9.10;;;;;;;16.51;86.19;99349.36;129935;1100;22635;-65
2021/05/28 04:46:46;;;;;;;10.58;8.78;;;;;;;16.53;86.04;99350.70;129951;1101;23847;-65
2021/05/28 04:49:14;;;;;;;16.55;9.80;;;;;;;16.53;85.82;99347.13;129918;1101;22711;-65
2021/05/28 04:51:43;;;;;;;9.33;7.48;;;;;;;16.55;85.53;99358.66;129930;1101;22556;-64
2021/05/28 04:54:12;;;;;;;11.58;8.50;;;;;;;16.55;85.08;99347.66;129930;1101;22735;-64
2021/05/28 04:56:41;;;;;;;8.03;7.25;;;;;;;16.57;85.28;99348.99;129935;1101;22551;-64
2021/05/28 04:59:09;;;;;;;8.55;7.70;;;;;;;16.59;85.04;99341.23;129938;1100;22562;-64
2021/05/28 05:01:39;;;;;;;9.75;8.08;;;;;;;16.63;85.11;99344.23;129942;1101;22573;-64
2021/05/28 05:04:07;;;;;;;8.63;7.23;;;;;;;16.65;84.92;99343.93;129909;1101;22609;-64
2021/05/28 05:06:37;;;;;;;7.65;6.85;;;;;;;16.68;84.83;99338.64;129924;1101;22513;-64
2021/05/28 05:09:07;;;;;;;10.15;7.60;;;;;;;16.70;84.47;99347.42;129880;1101;22601;-64
2021/05/28 05:11:36;;;;;;;10.18;7.43;;;;;;;16.71;84.17;99346.30;129933;1101;22637;-64
2021/05/28 05:14:05;;;;;;;9.15;7.08;;;;;;;16.74;83.88;99344.86;129948;1101;23337;-64
2021/05/28 05:16:34;;;;;;;9.70;7.25;;;;;;;16.75;83.53;99346.48;129919;1101;22696;-64
2021/05/28 05:19:13;;;;;;;7.88;6.50;;;;;;;16.76;82.95;99354.45;129866;1101;22572;-64
2021/05/28 05:21:42;;;;;;;7.43;6.73;;;;;;;16.80;82.95;99357.41;129968;1100;23283;-64
2021/05/28 05:24:11;;;;;;;10.73;7.53;;;;;;;16.82;82.96;99357.94;129884;1100;22602;-64
2021/05/28 05:26:39;;;;;;;7.33;6.35;;;;;;;16.85;82.74;99363.66;129963;1101;22723;-64
2021/05/28 05:29:09;;;;;;;7.13;6.20;;;;;;;16.87;82.56;99358.67;129900;1101;22700;-63
2021/05/28 05:31:39;;;;;;;8.53;7.28;;;;;;;16.90;82.15;99357.22;129996;1101;22670;-63
2021/05/28 05:34:08;;;;;;;6.60;5.93;;;;;;;16.91;81.91;99361.61;129985;1101;22735;-64
2021/05/28 05:36:39;;;;;;;6.98;6.18;;;;;;;16.93;81.60;99362.94;129951;1100;23311;-63
2021/05/28 05:39:10;;;;;;;7.48;6.68;;;;;;;16.95;81.22;99363.45;129942;1100;22508;-63
2021/05/28 05:41:38;;;;;;;6.50;5.68;;;;;;;16.98;81.17;99364.79;129907;1101;23435;-64
2021/05/28 05:44:07;;;;;;;8.50;5.90;;;;;;;17.01;80.83;99361.44;129917;1101;23243;-64
2021/05/28 05:46:35;;;;;;;9.50;5.58;;;;;;;17.04;80.66;99363.55;129885;1101;22620;-65
2021/05/28 05:49:04;;;;;;;8.10;7.03;;;;;;;17.06;80.74;99355.00;129889;1101;22677;-65
2021/05/28 05:51:32;;;;;;;8.43;6.30;;;;;;;17.08;80.70;99356.33;129946;1101;22638;-64
2021/05/28 05:54:01;;;;;;;8.80;6.83;;;;;;;17.11;80.96;99350.22;129982;1101;22744;-60
2021/05/28 05:56:30;;;;;;;8.53;7.45;;;;;;;17.15;80.97;99351.25;129980;1101;22762;-59
2021/05/28 05:58:59;;;;;;;12.10;8.10;;;;;;;17.18;80.84;99347.05;130033;1101;22533;-60
2021/05/28 06:01:28;;;;;;;9.20;7.78;;;;;;;17.20;80.66;99351.13;129925;1101;22581;-58
2021/05/28 06:03:58;;;;;;;9.80;7.68;;;;;;;17.21;80.40;99349.19;130048;1098;23801;-60
2021/05/28 06:06:27;;;;;;;12.20;9.08;;;;;;;17.24;80.70;99351.34;129875;1101;22648;-60
2021/05/28 06:08:55;;;;;;;8.95;8.05;;;;;;;17.27;80.91;99348.80;129960;1101;22756;-60
2021/05/28 06:11:24;;;;;;;9.93;7.43;;;;;;;17.29;80.82;99343.80;129948;1101;22684;-60
2021/05/28 06:13:54;;;;;;;9.88;8.78;;;;;;;17.32;81.11;99353.37;129958;1098;22510;-60
2021/05/28 06:16:23;;;;;;;11.98;9.18;;;;;;;17.33;80.80;99347.55;129976;1101;22559;-60
2021/05/28 06:18:51;;;;;;;9.68;8.58;;;;;;;17.34;80.22;99348.38;130057;1101;22604;-60
2021/05/28 06:21:20;;;;;;;9.90;8.05;;;;;;;17.35;80.18;99351.95;129972;1101;22528;-60
2021/05/28 06:23:49;;;;;;;8.05;7.25;;;;;;;17.34;79.96;99351.13;130055;1101;23253;-60
2021/05/28 06:26:17;;;;;;;10.23;6.73;;;;;;;17.34;79.38;99351.13;130001;1101;22585;-60
2021/05/28 06:28:46;;;;;;;7.15;5.20;;;;;;;17.35;77.89;99351.95;130044;1101;23378;-60
2021/05/28 06:31:14;;;;;;;7.63;5.60;;;;;;;17.33;76.87;99349.50;130034;1101;23304;-60
2021/05/28 06:33:42;;;;;;;6.48;5.85;;;;;;;17.35;76.78;99355.52;130084;1099;22685;-59
2021/05/28 06:36:11;;;;;;;5.93;5.38;;;;;;;17.37;76.88;99349.70;130140;1098;22521;-59
2021/05/28 06:38:40;;;;;;;9.50;6.90;;;;;;;17.39;76.48;99347.46;130000;1100;22558;-61
2021/05/28 06:41:08;;;;;;;7.70;6.90;;;;;;;17.42;76.82;99349.61;130057;1100;22735;-66
2021/05/28 06:43:36;;;;;;;8.90;7.00;;;;;;;17.47;76.84;99349.48;130133;1098;22548;-64
2021/05/28 06:46:05;;;;;;;11.55;8.75;;;;;;;17.51;77.14;99345.00;130044;1101;22576;-65
2021/05/28 06:48:34;;;;;;;10.15;7.90;;;;;;;17.54;77.22;99339.70;129998;1101;22602;-65
2021/05/28 06:51:02;;;;;;;9.05;8.15;;;;;;;17.59;77.17;99350.62;130014;1101;23007;-65
2021/05/28 06:53:31;;;;;;;10.20;9.08;;;;;;;17.62;76.92;99352.73;130006;1101;22547;-65
2021/05/28 06:55:59;;;;;;;12.00;8.23;;;;;;;17.64;76.78;99345.01;130034;1100;22618;-64
2021/05/28 06:58:29;;;;;;;12.15;8.98;;;;;;;17.66;76.97;99348.28;129969;1101;23309;-65
2021/05/28 07:00:59;;;;;;;12.53;10.05;;;;;;;17.72;76.89;99351.75;130022;1101;23379;-65
2021/05/28 07:03:28;;;;;;;11.93;9.13;;;;;;;17.79;76.95;99345.80;129990;1098;22621;-65
2021/05/28 07:05:56;;;;;;;13.33;10.25;;;;;;;17.84;76.87;99343.75;130071;1100;22579;-65
2021/05/28 07:08:24;;;;;;;11.25;8.20;;;;;;;17.88;76.06;99353.05;130048;1099;23305;-65
2021/05/28 07:10:53;;;;;;;12.05;8.83;;;;;;;17.92;76.34;99348.52;130069;1098;22553;-65
2021/05/28 07:13:21;;;;;;;14.53;8.90;;;;;;;17.97;75.40;99344.84;130069;1099;22575;-65
2021/05/28 07:16:01;;;;;;;10.75;8.73;;;;;;;18.01;75.17;99341.16;130079;1098;22548;-65
2021/05/28 07:18:29;;;;;;;10.65;8.90;;;;;;;18.06;74.15;99340.20;130036;1100;23238;-65
2021/05/28 07:20:58;;;;;;;8.98;7.70;;;;;;;18.07;73.88;99336.32;130053;1100;23445;-65
2021/05/28 07:23:29;;;;;;;11.23;8.33;;;;;;;18.12;74.19;99338.97;130008;1101;22696;-65
2021/05/28 07:26:00;;;;;;;9.05;7.95;;;;;;;18.15;73.40;99337.53;130029;1101;22675;-65
2021/05/28 07:28:29;;;;;;;11.03;8.35;;;;;;;18.18;73.51;99337.70;130025;1100;23411;-65
2021/05/28 07:30:57;;;;;;;12.88;8.80;;;;;;;18.24;73.71;99336.47;130081;1098;22696;-67
2021/05/28 07:33:26;;;;;;;9.93;8.90;;;;;;;18.30;73.31;99331.66;130136;1098;22565;-64
2021/05/28 07:35:54;;;;;;;11.33;7.85;;;;;;;18.33;73.25;99331.81;130000;1098;22764;-64
2021/05/28 07:38:23;;;;;;;9.75;8.75;;;;;;;18.36;73.76;99330.38;130058;1100;23165;-65
2021/05/28 07:40:51;;;;;;;11.33;9.50;;;;;;;18.43;74.13;99330.77;130042;1101;22560;-64
2021/05/28 07:43:20;;;;;;;10.60;9.48;;;;;;;18.49;74.38;99334.19;130048;1100;23703;-64
2021/05/28 07:45:51;;;;;;;10.05;8.95;;;;;;;18.55;73.96;99332.95;129942;1101;23140;-64
2021/05/28 07:48:20;;;;;;;9.23;8.38;;;;;;;18.61;73.63;99331.73;130068;1101;22585;-64
2021/05/28 07:50:50;;;;;;;9.88;8.45;;;;;;;18.65;73.04;99321.66;129962;1101;23766;-64
2021/05/28 07:53:22;;;;;;;10.15;9.15;;;;;;;18.68;73.34;99326.56;130034;1101;22797;-64
2021/05/28 07:55:51;;;;;;;10.00;9.00;;;;;;;18.71;72.89;99328.70;130005;1101;22563;-64
2021/05/28 07:58:19;;;;;;;12.83;9.55;;;;;;;18.71;72.73;99326.75;130013;1101;22614;-64
2021/05/28 08:00:48;;;;;;;14.23;9.98;;;;;;;18.70;72.78;99329.83;129968;1101;22591;-64
2021/05/28 08:03:17;;;;;;;12.40;10.30;;;;;;;18.73;72.82;99320.92;130060;1101;22601;-64
2021/05/28 08:05:49;;;;;;;12.15;10.70;;;;;;;18.75;73.04;99324.18;129992;1101;24317;-64
2021/05/28 08:08:19;;;;;;;14.15;12.65;;;;;;;18.80;73.39;99321.27;130025;1101;22642;-64
2021/05/28 08:10:47;;;;;;;15.48;13.45;;;;;;;18.86;73.59;99320.01;129990;1101;22569;-64
2021/05/28 08:13:18;;;;;;;16.05;13.58;;;;;;;18.92;73.41;99309.63;130049;1101;22636;-64
2021/05/28 08:16:06;;;;;;;15.50;13.48;;;;;;;18.98;73.61;99316.64;129960;1101;22651;-64
2021/05/28 08:18:37;;;;;;;13.93;12.53;;;;;;;19.01;73.26;99307.73;130046;1101;22569;-64
2021/05/28 08:21:06;;;;;;;16.53;14.40;;;;;;;19.04;73.50;99307.09;130001;1101;22588;-64
2021/05/28 08:23:35;;;;;;;19.80;15.18;;;;;;;19.06;73.05;99297.34;130005;1101;22604;-64
2021/05/28 08:26:07;;;;;;;17.00;15.20;;;;;;;19.11;73.22;99301.91;130058;1098;22669;-64
2021/05/28 08:28:36;;;;;;;19.98;17.88;;;;;;;19.17;73.70;99297.88;130016;1101;23363;-64
2021/05/28 08:31:05;;;;;;;23.90;18.38;;;;;;;19.22;74.27;99294.14;129990;1101;23449;-64
2021/05/28 08:33:33;;;;;;;23.08;20.20;;;;;;;19.28;74.36;99299.20;130002;1101;22565;-64
2021/05/28 08:36:02;;;;;;;23.67;20.20;;;;;;;19.32;74.30;99300.20;130011;1101;22597;-63
2021/05/28 08:38:30;;;;;;;24.78;20.28;;;;;;;19.34;73.86;99291.56;129983;1101;23307;-60
2021/05/28 08:40:59;;;;;;;24.50;19.73;;;;;;;19.35;73.79;99288.48;130007;1101;22680;-63
2021/05/28 08:43:27;;;;;;;24.95;19.28;;;;;;;19.35;73.29;99288.48;129949;1100;22592;-64
2021/05/28 08:46:03;;;;;;;24.05;21.40;;;;;;;19.36;73.53;99294.83;130018;1101;22541;-64
2021/05/28 08:48:31;;;;;;;23.53;20.88;;;;;;;19.38;73.86;99293.38;130085;1099;23494;-63
2021/05/28 08:51:01;;;;;;;27.40;22.08;;;;;;;19.43;73.81;99289.66;130017;1101;23078;-64
2021/05/28 08:55:51;;;;;;;21.03;18.80;;;;;;;19.52;73.57;99293.27;125503;1089;22752;-65
2021/05/28 08:58:20;;;;;;;25.70;22.05;;;;;;;19.55;72.73;99292.63;125301;1101;22763;-65
2021/05/28 09:00:49;;;;;;;24.73;22.10;;;;;;;19.56;72.84;99291.50;129995;1101;22479;-65
2021/05/28 09:03:44;;;;;;;25.48;21.70;;;;;;;19.58;73.11;99282.88;129984;1101;22674;-66
2021/05/28 09:06:17;;;;;;;20.40;18.20;;;;;;;19.62;72.44;99283.88;129944;1101;22569;-66
2021/05/28 09:08:46;;;;;;;20.18;18.15;;;;;;;19.65;72.26;99281.25;129928;1101;23118;-66
2021/05/28 09:11:19;;;;;;;23.35;17.65;;;;;;;19.68;71.15;99277.03;129982;1101;22523;-66
2021/05/28 09:13:56;;;;;;;22.25;17.18;;;;;;;19.70;71.74;99280.30;129906;1101;23659;-66
2021/05/28 09:16:27;;;;;;;19.55;17.58;;;;;;;19.72;71.52;99280.78;129958;1101;23475;-65
2021/05/28 09:19:00;;;;;;;21.90;17.80;;;;;;;19.76;71.27;99281.77;129908;1101;23561;-66
2021/05/28 09:21:35;;;;;;;20.10;17.88;;;;;;;19.77;71.43;99278.66;129979;1101;22570;-66
2021/05/28 09:24:06;;;;;;;21.63;18.45;;;;;;;19.79;70.71;99275.57;129935;1101;23500;-66
2021/05/28 09:26:36;;;;;;;21.77;18.15;;;;;;;19.80;70.22;99271.67;129919;1101;23428;-66
2021/05/28 09:29:07;;;;;;;20.90;18.73;;;;;;;19.82;70.32;99268.58;129929;1101;22525;-67
2021/05/28 09:31:35;;;;;;;20.65;18.53;;;;;;;19.83;70.41;99273.79;129953;1101;22569;-66
2021/05/28 09:34:04;;;;;;;22.88;19.03;;;;;;;19.87;71.03;99260.95;129832;1101;22647;-66
2021/05/28 09:36:36;;;;;;;21.08;18.88;;;;;;;19.91;70.96;99259.14;129949;1101;22583;-67
2021/05/28 09:39:11;;;;;;;18.60;16.78;;;;;;;19.97;70.73;99263.38;129802;1101;23343;-63
2021/05/28 09:41:56;;;;;;;17.25;15.23;;;;;;;20.02;69.67;99251.34;129701;1101;22735;-65
2021/05/28 09:44:32;;;;;;;16.43;12.53;;;;;;;20.08;70.09;99255.55;129712;1101;22607;-65
2021/05/28 09:47:02;;;;;;;16.70;13.65;;;;;;;20.19;69.19;99244.98;130015;1101;23483;-65
2021/05/28 09:49:36;;;;;;;19.83;16.80;;;;;;;20.28;69.65;99237.47;129931;1101;22569;-65
2021/05/28 09:52:08;;;;;;;18.45;16.55;;;;;;;20.37;69.31;99241.86;129698;1104;22602;-66
2021/05/28 09:54:37;;;;;;;18.05;16.13;;;;;;;20.45;69.25;99237.45;129704;1101;22809;-66
2021/05/28 09:57:06;;;;;;;21.63;18.13;;;;;;;20.50;68.13;99240.03;129720;1101;22553;-66
2021/05/28 09:59:45;;;;;;;20.28;18.20;;;;;;;20.53;67.70;99241.33;129618;1101;23503;-66
2021/05/28 10:02:33;;;;;;;19.40;17.50;;;;;;;20.51;67.29;99241.66;129894;1101;22566;-66
2021/05/28 10:05:01;;;;;;;20.58;17.25;;;;;;;20.51;66.84;99238.08;129687;1101;22558;-66
2021/05/28 10:07:30;;;;;;;22.90;16.35;;;;;;;20.53;67.09;99233.02;129872;1101;23411;-66
2021/05/28 10:09:59;;;;;;;17.13;15.33;;;;;;;20.53;66.93;99233.84;129831;1101;22577;-66
2021/05/28 10:12:27;;;;;;;18.63;16.03;;;;;;;20.55;66.51;99237.09;129733;1104;23181;-66
2021/05/28 10:14:56;;;;;;;17.70;15.00;;;;;;;20.57;66.90;99232.05;129703;1101;22716;-66
2021/05/28 10:17:25;;;;;;;16.93;14.45;;;;;;;20.59;66.68;99224.22;129979;1101;22666;-66
2021/05/28 10:19:53;;;;;;;17.05;14.25;;;;;;;20.62;66.34;99233.83;129946;1101;22540;-66
2021/05/28 10:22:24;;;;;;;18.50;14.38;;;;;;;20.64;66.09;99217.67;129712;1102;22631;-66
2021/05/28 10:24:52;;;;;;;18.20;16.23;;;;;;;20.66;66.34;99213.43;129735;1101;22646;-65
2021/05/28 10:27:22;;;;;;;19.60;16.55;;;;;;;20.67;66.46;99212.29;129606;1104;22550;-65
2021/05/28 10:29:52;;;;;;;17.03;14.78;;;;;;;20.72;65.53;99214.88;129946;1101;22618;-65
2021/05/28 10:32:22;;;;;;;17.03;14.88;;;;;;;20.74;66.00;99209.83;129682;1104;22677;-65
2021/05/28 10:35:13;;;;;;;15.23;13.73;;;;;;;20.81;67.21;99212.06;129844;1101;22552;-65
2021/05/28 10:37:45;;;;;;;17.70;14.18;;;;;;;20.86;66.92;99195.27;129940;1101;23725;-65
2021/05/28 10:40:30;;;;;;;16.83;14.80;;;;;;;20.93;65.83;99197.50;129810;1101;22561;-66
2021/05/28 10:43:02;;;;;;;16.10;14.53;;;;;;;21.01;65.24;99199.42;129932;1101;23308;-66
2021/05/28 10:45:58;;;;;;;28.08;20.20;;;;;;;21.06;66.38;99194.48;129868;1101;22646;-65
2021/05/28 10:48:42;;;;;;;29.50;22.85;;;;;;;21.11;66.34;99194.30;129858;1101;22543;-65
2021/05/28 10:51:26;;;;;;;25.83;23.05;;;;;;;21.12;67.41;99198.70;129695;1101;23389;-66
2021/05/28 10:53:54;;;;;;;26.13;20.28;;;;;;;21.16;66.83;99196.08;129867;1101;22675;-65
2021/05/28 10:56:43;;;;;;;23.43;18.78;;;;;;;21.17;67.01;99186.61;129950;1101;22620;-65
2021/05/28 10:59:14;;;;;;;20.18;18.05;;;;;;;21.20;65.79;99187.94;129908;1101;23391;-66
2021/05/28 11:01:42;;;;;;;21.50;19.30;;;;;;;21.21;65.32;99181.25;129978;1101;22549;-65
2021/05/28 11:04:14;;;;;;;24.10;19.35;;;;;;;21.20;65.06;99183.20;130002;1101;22584;-65
2021/05/28 11:06:56;;;;;;;22.88;19.45;;;;;;;21.18;65.14;99180.74;129960;1101;22829;-65
2021/05/28 11:09:49;;;;;;;25.08;22.58;;;;;;;21.17;65.85;99181.89;129915;1101;22570;-66
2021/05/28 11:12:27;;;;;;;25.93;23.18;;;;;;;21.13;65.82;99160.72;129961;1101;22615;-65
2021/05/28 11:14:58;;;;;;;27.13;23.02;;;;;;;21.10;65.83;99166.93;129878;1101;22729;-65
2021/05/28 11:17:27;;;;;;;24.15;21.75;;;;;;;21.05;66.13;99158.83;129919;1101;22649;-66
2021/05/28 11:19:57;;;;;;;26.90;22.50;;;;;;;21.01;66.25;99153.15;129880;1101;22579;-66
2021/05/28 11:22:30;;;;;;;23.88;21.48;;;;;;;20.98;66.12;99150.23;129978;1101;22540;-66
2021/05/28 11:25:02;;;;;;;25.18;21.03;;;;;;;20.94;65.37;99150.08;129705;1102;23489;-66
2021/05/28 11:27:33;;;;;;;21.55;19.23;;;;;;;20.93;65.56;99142.92;129873;1101;22602;-66
2021/05/28 11:30:04;;;;;;;22.53;20.18;;;;;;;20.92;65.73;99144.06;129981;1101;23741;-66
2021/05/28 11:32:37;;;;;;;22.70;20.55;;;;;;;20.94;65.44;99141.77;129915;1101;22594;-66